createdAt,value
2022-08-21T00:05:03.214Z,6.90
2022-08-21T00:10:06.496Z,6.10
2022-08-21T00:15:10.335Z,5.55
2022-08-21T00:20:15.927Z,5.32
2022-08-21T00:25:20.953Z,5.00
2022-08-21T00:30:28.777Z,5.75
2022-08-21T00:35:38.099Z,5.45
2022-08-21T00:40:45.291Z,5.50
2022-08-21T00:45:48.464Z,4.55
2022-08-21T00:50:55.979Z,5.20
2022-08-21T01:01:03.726Z,5.85
2022-08-21T01:06:10.044Z,5.55
2022-08-21T01:11:13.562Z,6.22
2022-08-21T01:16:19.696Z,6.25
2022-08-21T01:21:28.296Z,5.88
2022-08-21T01:26:34.512Z,5.68
2022-08-21T01:31:38.257Z,6.35
2022-08-21T01:36:40.969Z,7.03
2022-08-21T01:41:43.574Z,6.35
2022-08-21T01:46:46.207Z,7.22
2022-08-21T01:51:48.726Z,7.38
2022-08-21T01:56:54.335Z,6.70
2022-08-21T02:01:56.728Z,7.70
2022-08-21T02:06:59.287Z,7.45
2022-08-21T02:12:01.740Z,8.27
2022-08-21T02:17:05.278Z,8.73
2022-08-21T02:22:11.847Z,8.43
2022-08-21T02:27:14.268Z,8.52
2022-08-21T02:32:16.959Z,8.38
2022-08-21T02:37:19.422Z,8.95
2022-08-21T02:42:21.890Z,8.10
2022-08-21T02:47:24.314Z,7.70
2022-08-21T02:52:26.708Z,7.60
2022-08-21T02:57:29.200Z,9.27
2022-08-21T03:02:32.020Z,8.60
2022-08-21T03:07:35.597Z,9.75
2022-08-21T03:12:38.287Z,9.48
2022-08-21T03:17:41.057Z,9.02
2022-08-21T03:22:45.679Z,9.27
2022-08-21T03:27:58.800Z,9.43
2022-08-21T03:33:02.755Z,8.45
2022-08-21T03:38:05.415Z,8.93
2022-08-21T03:43:10.190Z,14.85
2022-08-21T03:48:13.359Z,12.52
2022-08-21T03:53:18.047Z,12.55
2022-08-21T03:58:23.319Z,10.90
2022-08-21T04:03:27.028Z,10.98
2022-08-21T04:08:29.551Z,13.68
2022-08-21T04:13:32.105Z,12.52
2022-08-21T04:18:34.842Z,13.40
2022-08-21T04:23:38.160Z,10.20
2022-08-21T04:28:40.624Z,10.38
2022-08-21T04:33:43.329Z,9.38
2022-08-21T04:38:45.826Z,10.20
2022-08-21T04:43:48.407Z,11.18
2022-08-21T04:48:51.686Z,12.15
2022-08-21T04:54:03.686Z,9.50
2022-08-21T04:59:09.365Z,11.32
2022-08-21T05:04:14.092Z,10.07
2022-08-21T05:09:18.911Z,8.52
2022-08-21T05:14:21.519Z,7.82
2022-08-21T05:19:24.516Z,8.82
2022-08-21T05:24:27.203Z,8.52
2022-08-21T05:29:32.561Z,8.88
2022-08-21T05:34:35.249Z,9.38
2022-08-21T05:40:21.323Z,8.90
2022-08-21T05:45:02.250Z,8.55
2022-08-21T05:50:05.762Z,7.80
2022-08-21T05:55:08.855Z,7.30
2022-08-21T06:00:13.461Z,8.00
2022-08-21T06:05:16.561Z,7.60
2022-08-21T06:10:27.558Z,7.90
2022-08-21T06:15:29.969Z,6.68
2022-08-21T06:20:33.518Z,7.82
2022-08-21T06:25:36.358Z,8.35
2022-08-21T06:30:39.706Z,6.85
2022-08-21T06:35:42.820Z,7.85
2022-08-21T06:40:48.132Z,8.40
2022-08-21T06:45:50.827Z,9.02
2022-08-21T06:50:53.738Z,7.68
2022-08-21T06:55:56.601Z,7.82
2022-08-21T07:01:01.200Z,8.57
2022-08-21T07:06:06.015Z,7.90
2022-08-21T07:11:16.619Z,7.88
2022-08-21T07:16:19.076Z,8.57
2022-08-21T07:21:25.809Z,7.55
2022-08-21T07:26:28.655Z,7.93
2022-08-21T07:31:31.310Z,7.20
2022-08-21T07:36:33.815Z,8.85
2022-08-21T07:41:38.706Z,9.13
2022-08-21T07:46:41.270Z,8.15
2022-08-21T07:51:43.649Z,8.63
2022-08-21T07:56:46.793Z,9.73
2022-08-21T08:01:49.288Z,10.23
2022-08-21T08:06:51.756Z,8.32
2022-08-21T08:11:54.591Z,9.77
2022-08-21T08:16:57.675Z,10.10
2022-08-21T08:22:00.107Z,8.60
2022-08-21T08:27:02.577Z,11.10
2022-08-21T08:32:06.118Z,10.65
2022-08-21T08:37:10.452Z,10.25
2022-08-21T08:42:32.174Z,9.90
2022-08-21T08:47:51.629Z,12.18
2022-08-21T08:52:59.977Z,9.38
2022-08-21T08:58:03.834Z,9.85
2022-08-21T09:03:06.341Z,8.52
2022-08-21T09:08:53.134Z,9.35
2022-08-21T09:14:30.731Z,9.65
2022-08-21T09:20:00.514Z,9.02
2022-08-21T09:25:26.778Z,8.20
2022-08-21T09:30:32.405Z,8.68
2022-08-21T09:35:36.532Z,9.75
2022-08-21T09:40:41.444Z,9.05
2022-08-21T09:45:44.646Z,9.82
2022-08-21T09:50:48.753Z,10.00
2022-08-21T09:56:37.541Z,9.23
2022-08-21T10:01:48.061Z,9.95
2022-08-21T10:06:50.500Z,12.25
2022-08-21T10:12:02.107Z,14.35
2022-08-21T10:17:21.640Z,16.77
2022-08-21T10:22:31.070Z,16.90
2022-08-21T10:27:39.258Z,18.02
2022-08-21T10:32:48.640Z,17.42
2022-08-21T10:38:04.380Z,19.98
2022-08-21T10:43:34.548Z,17.80
2022-08-21T10:49:00.925Z,18.15
2022-08-21T10:54:18.192Z,16.25
2022-08-21T10:59:40.342Z,20.17
2022-08-21T11:05:23.326Z,23.23
2022-08-21T11:10:57.492Z,19.00
2022-08-21T11:16:25.447Z,14.90
2022-08-21T11:21:29.876Z,10.60
2022-08-21T11:26:38.462Z,11.95
2022-08-21T11:32:21.926Z,11.30
2022-08-21T11:37:45.394Z,9.27
2022-08-21T11:43:12.499Z,7.78
2022-08-21T11:48:42.575Z,7.60
2022-08-21T11:54:07.396Z,7.65
2022-08-21T11:59:23.971Z,6.45
2022-08-21T12:04:44.759Z,6.78
2022-08-21T12:09:56.360Z,7.85
2022-08-21T12:15:23.762Z,11.13
2022-08-21T12:20:50.873Z,9.65
2022-08-21T12:26:04.823Z,9.60
2022-08-21T12:31:19.700Z,11.80
2022-08-21T12:36:27.052Z,13.35
2022-08-21T12:41:33.660Z,13.00
2022-08-21T12:46:53.814Z,11.93
2022-08-21T12:52:02.100Z,13.00
2022-08-21T12:57:07.546Z,11.07
2022-08-21T13:02:18.747Z,10.55
2022-08-21T13:07:27.870Z,10.63
2022-08-21T13:12:32.648Z,9.65
2022-08-21T13:17:38.679Z,11.90
2022-08-21T13:22:45.654Z,10.25
2022-08-21T13:28:10.240Z,10.02
2022-08-21T13:33:17.341Z,8.95
2022-08-21T13:38:27.125Z,8.48
2022-08-21T13:43:34.665Z,8.27
2022-08-21T13:48:38.018Z,10.60
2022-08-21T13:53:43.824Z,9.27
2022-08-21T13:58:48.125Z,9.45
2022-08-21T14:03:53.399Z,9.40
2022-08-21T14:09:02.437Z,8.05
2022-08-21T14:14:11.844Z,7.88
2022-08-21T14:19:23.597Z,8.88
2022-08-21T14:24:29.762Z,8.45
2022-08-21T14:29:42.109Z,7.63
2022-08-21T14:34:46.634Z,6.25
2022-08-21T14:39:49.332Z,5.10
2022-08-21T14:44:52.498Z,6.20
2022-08-21T14:49:55.355Z,4.57
2022-08-21T14:54:57.737Z,5.05
2022-08-21T15:00:02.402Z,5.07
2022-08-21T15:05:05.992Z,4.43
2022-08-21T15:10:09.851Z,4.30
2022-08-21T15:15:12.581Z,4.07
2022-08-21T15:25:22.726Z,4.82
2022-08-21T15:30:25.763Z,4.95
2022-08-21T15:35:28.339Z,4.88
2022-08-21T15:40:31.208Z,5.65
2022-08-21T15:45:34.683Z,4.82
2022-08-21T15:50:37.749Z,4.60
2022-08-21T15:55:40.681Z,4.63
2022-08-21T16:00:45.184Z,4.43
2022-08-21T16:05:50.198Z,4.85
2022-08-21T16:10:53.766Z,4.72
2022-08-21T16:15:56.606Z,4.00
2022-08-21T16:20:59.767Z,3.47
2022-08-21T16:26:03.810Z,3.78
2022-08-21T16:31:06.510Z,3.58
2022-08-21T16:36:12.296Z,3.50
2022-08-21T16:41:17.748Z,3.60
2022-08-21T16:46:21.533Z,3.17
2022-08-21T16:51:25.474Z,3.25
2022-08-21T16:56:28.469Z,3.15
2022-08-21T17:01:32.954Z,3.13
2022-08-21T17:06:35.824Z,3.63
2022-08-21T17:11:41.801Z,3.45
2022-08-21T17:16:47.727Z,3.53
2022-08-21T17:21:50.426Z,4.25
2022-08-21T17:26:53.747Z,4.32
2022-08-21T17:31:57.466Z,4.65
2022-08-21T17:37:00.464Z,4.00
2022-08-21T17:42:08.308Z,4.18
2022-08-21T17:47:11.351Z,4.82
2022-08-21T17:52:13.942Z,3.88
2022-08-21T17:57:22.916Z,3.60
2022-08-21T18:02:25.967Z,3.80
2022-08-21T18:07:32.755Z,3.90
2022-08-21T18:12:35.748Z,3.95
2022-08-21T18:17:38.239Z,4.03
2022-08-21T18:22:40.693Z,3.63
2022-08-21T18:27:45.920Z,3.83
2022-08-21T18:32:48.528Z,4.15
2022-08-21T18:37:51.070Z,4.05
2022-08-21T18:42:55.580Z,3.90
2022-08-21T18:47:59.190Z,4.68
2022-08-21T18:53:02.030Z,4.70
2022-08-21T18:58:20.667Z,4.90
2022-08-21T19:03:24.848Z,5.05
2022-08-21T19:08:28.906Z,4.85
2022-08-21T19:13:32.614Z,4.60
2022-08-21T19:18:39.265Z,3.90
2022-08-21T19:23:44.338Z,3.70
2022-08-21T19:28:50.162Z,3.25
2022-08-21T19:34:01.830Z,3.42
2022-08-21T19:39:08.262Z,3.05
2022-08-21T19:44:23.063Z,2.22
2022-08-21T19:49:33.481Z,2.28
2022-08-21T19:54:36.334Z,2.38
2022-08-21T19:59:40.722Z,2.60
2022-08-21T20:04:54.028Z,2.22
2022-08-21T20:09:58.027Z,2.17
2022-08-21T20:15:00.559Z,2.33
2022-08-21T20:20:03.104Z,2.60
2022-08-21T20:25:06.129Z,3.08
2022-08-21T20:30:10.906Z,3.15
2022-08-21T20:35:13.744Z,2.97
2022-08-21T20:40:16.963Z,3.63
2022-08-21T20:45:33.349Z,3.85
2022-08-21T20:50:38.883Z,5.70
2022-08-21T20:55:47.907Z,5.97
2022-08-21T21:00:51.913Z,5.95
2022-08-21T21:05:58.850Z,6.78
2022-08-21T21:11:05.806Z,5.53
2022-08-21T21:16:25.007Z,5.10
2022-08-21T21:21:51.630Z,6.32
2022-08-21T21:27:18.718Z,5.93
2022-08-21T21:32:22.149Z,6.85
2022-08-21T21:37:26.549Z,6.32
2022-08-21T21:42:40.062Z,5.82
2022-08-21T21:48:08.654Z,5.43
2022-08-21T21:59:47.377Z,4.80
2022-08-21T22:05:14.595Z,6.28
2022-08-21T22:10:43.196Z,4.70
2022-08-21T22:16:05.282Z,3.60
2022-08-21T22:21:30.645Z,3.72
2022-08-21T22:26:44.103Z,3.03
2022-08-21T22:32:04.889Z,2.88
2022-08-21T22:37:11.419Z,2.58
2022-08-21T22:42:21.833Z,3.08
2022-08-21T22:47:32.262Z,2.97
2022-08-21T22:52:38.488Z,2.20
2022-08-21T22:57:43.159Z,1.95
2022-08-21T23:02:52.348Z,2.55
2022-08-21T23:08:13.957Z,2.40
2022-08-21T23:13:19.138Z,3.08
2022-08-21T23:18:30.271Z,2.80
2022-08-21T23:23:35.884Z,3.50
2022-08-21T23:28:44.207Z,2.60
2022-08-21T23:34:07.954Z,2.53
2022-08-21T23:39:20.468Z,2.45
2022-08-21T23:44:47.688Z,2.00
2022-08-21T23:50:32.557Z,2.47
2022-08-21T23:55:59.271Z,2.40
